createdAt,value
2022-11-09T00:00:06.773Z,12.40
2022-11-09T00:02:33.193Z,12.20
2022-11-09T00:04:59.616Z,12.20
2022-11-09T00:07:26.044Z,12.10
2022-11-09T00:09:52.565Z,12.20
2022-11-09T00:12:19.030Z,12.20
2022-11-09T00:14:45.441Z,12.10
2022-11-09T00:17:11.902Z,12.20
2022-11-09T00:19:38.353Z,12.00
2022-11-09T00:22:04.820Z,12.10
2022-11-09T00:24:31.281Z,12.10
2022-11-09T00:26:57.693Z,12.00
2022-11-09T00:29:24.101Z,12.10
2022-11-09T00:31:50.535Z,12.10
2022-11-09T00:34:16.959Z,12.00
2022-11-09T00:36:43.454Z,12.20
2022-11-09T00:39:09.888Z,12.10
2022-11-09T00:41:36.505Z,12.20
2022-11-09T00:44:02.954Z,12.20
2022-11-09T00:46:29.710Z,12.20
2022-11-09T00:48:56.298Z,12.10
2022-11-09T00:51:22.705Z,12.20
2022-11-09T00:53:49.202Z,12.20
2022-11-09T00:56:15.674Z,12.20
2022-11-09T00:58:42.157Z,12.10
2022-11-09T01:01:11.386Z,12.10
2022-11-09T01:03:38.465Z,12.20
2022-11-09T01:06:05.802Z,12.10
2022-11-09T01:08:33.157Z,12.10
2022-11-09T01:11:05.410Z,12.00
2022-11-09T01:13:32.177Z,12.10
2022-11-09T01:15:58.690Z,12.00
2022-11-09T01:18:25.108Z,12.10
2022-11-09T01:20:51.680Z,12.10
2022-11-09T01:23:19.071Z,12.10
2022-11-09T01:25:46.129Z,12.00
2022-11-09T01:28:13.130Z,11.90
2022-11-09T01:30:42.447Z,11.70
2022-11-09T01:33:10.856Z,11.70
2022-11-09T01:35:38.880Z,11.60
2022-11-09T01:38:07.114Z,11.70
2022-11-09T01:40:35.810Z,11.60
2022-11-09T01:43:21.223Z,11.70
2022-11-09T01:46:03.782Z,11.70
2022-11-09T01:48:36.158Z,11.70
2022-11-09T01:51:09.495Z,11.80
2022-11-09T01:53:42.011Z,11.80
2022-11-09T01:56:10.516Z,11.90
2022-11-09T01:58:54.480Z,11.90
2022-11-09T02:01:21.442Z,11.80
2022-11-09T02:03:59.483Z,11.50
2022-11-09T02:06:28.943Z,11.30
2022-11-09T02:09:04.518Z,11.30
2022-11-09T02:11:30.950Z,11.40
2022-11-09T02:14:00.698Z,11.30
2022-11-09T02:16:27.946Z,11.20
2022-11-09T02:18:56.953Z,11.00
2022-11-09T02:21:25.694Z,11.00
2022-11-09T02:23:52.757Z,10.90
2022-11-09T02:26:31.239Z,10.90
2022-11-09T02:28:59.669Z,10.90
2022-11-09T02:31:30.998Z,10.70
2022-11-09T02:34:08.348Z,10.70
2022-11-09T02:36:34.849Z,10.70
2022-11-09T02:39:02.265Z,10.70
2022-11-09T02:41:31.645Z,10.70
2022-11-09T02:43:59.316Z,10.60
2022-11-09T02:46:31.396Z,10.80
2022-11-09T02:48:58.265Z,10.80
2022-11-09T02:51:24.700Z,10.90
2022-11-09T02:53:51.204Z,11.00
2022-11-09T02:56:17.616Z,11.00
2022-11-09T02:58:44.086Z,11.20
2022-11-09T03:01:10.789Z,11.10
2022-11-09T03:03:37.273Z,11.10
2022-11-09T03:06:04.108Z,11.10
2022-11-09T03:08:30.519Z,11.10
2022-11-09T03:10:59.320Z,11.00
2022-11-09T03:13:25.787Z,11.20
2022-11-09T03:15:52.196Z,11.20
2022-11-09T03:18:18.694Z,11.30
2022-11-09T03:20:45.111Z,11.30
2022-11-09T03:23:11.530Z,11.30
2022-11-09T03:25:37.930Z,11.30
2022-11-09T03:28:06.849Z,11.40
2022-11-09T03:30:33.659Z,11.40
2022-11-09T03:33:09.806Z,11.40
2022-11-09T03:35:39.297Z,11.40
2022-11-09T03:38:06.331Z,11.50
2022-11-09T03:40:32.861Z,11.50
2022-11-09T03:42:59.264Z,11.60
2022-11-09T03:45:27.775Z,11.70
2022-11-09T03:48:00.537Z,11.80
2022-11-09T03:50:28.715Z,11.80
2022-11-09T03:52:56.124Z,11.90
2022-11-09T03:55:22.521Z,12.00
2022-11-09T03:57:49.241Z,12.00
2022-11-09T04:00:18.196Z,12.10
2022-11-09T04:02:44.731Z,12.10
2022-11-09T04:05:11.511Z,12.00
2022-11-09T04:07:38.507Z,12.10
2022-11-09T04:10:06.531Z,12.10
2022-11-09T04:12:32.924Z,12.00
2022-11-09T04:14:59.345Z,12.00
2022-11-09T04:17:25.795Z,12.00
2022-11-09T04:19:52.222Z,11.90
2022-11-09T04:22:18.698Z,11.80
2022-11-09T04:24:45.137Z,11.70
2022-11-09T04:27:11.606Z,11.90
2022-11-09T04:29:38.065Z,11.80
2022-11-09T04:32:04.543Z,11.70
2022-11-09T04:34:31.105Z,11.70
2022-11-09T04:36:57.529Z,11.70
2022-11-09T04:39:24.097Z,11.60
2022-11-09T04:41:50.535Z,11.50
2022-11-09T04:44:16.947Z,11.60
2022-11-09T04:46:43.434Z,11.50
2022-11-09T04:49:09.861Z,11.50
2022-11-09T04:51:36.329Z,11.50
2022-11-09T04:54:02.902Z,11.50
2022-11-09T04:56:29.347Z,11.50
2022-11-09T04:58:55.784Z,11.50
2022-11-09T05:01:23.466Z,11.30
2022-11-09T05:03:49.940Z,11.50
2022-11-09T05:06:34.729Z,11.40
2022-11-09T05:09:06.708Z,11.50
2022-11-09T05:11:34.454Z,11.60
2022-11-09T05:14:01.255Z,11.60
2022-11-09T05:16:31.329Z,11.60
2022-11-09T05:18:57.769Z,11.70
2022-11-09T05:21:24.174Z,11.70
2022-11-09T05:23:59.576Z,11.80
2022-11-09T05:26:34.254Z,11.80
2022-11-09T05:29:03.574Z,11.90
2022-11-09T05:31:30.708Z,11.90
2022-11-09T05:33:57.345Z,12.00
2022-11-09T05:36:23.855Z,12.00
2022-11-09T05:38:50.297Z,12.00
2022-11-09T05:41:17.273Z,12.10
2022-11-09T05:43:47.883Z,12.20
2022-11-09T05:46:15.574Z,12.10
2022-11-09T05:48:43.170Z,12.10
2022-11-09T05:51:11.931Z,12.20
2022-11-09T05:53:41.143Z,12.10
2022-11-09T05:56:12.926Z,12.20
2022-11-09T05:58:39.392Z,12.30
2022-11-09T06:01:07.778Z,12.30
2022-11-09T06:03:34.192Z,12.40
2022-11-09T06:06:07.768Z,12.40
2022-11-09T06:08:34.972Z,12.40
2022-11-09T06:11:06.583Z,12.40
2022-11-09T06:13:33.512Z,12.30
2022-11-09T06:16:01.651Z,12.40
2022-11-09T06:18:29.927Z,12.40
2022-11-09T06:20:58.815Z,12.30
2022-11-09T06:23:26.015Z,12.30
2022-11-09T06:25:53.564Z,12.30
2022-11-09T06:28:20.628Z,12.30
2022-11-09T06:30:47.073Z,12.30
2022-11-09T06:33:13.505Z,12.40
2022-11-09T06:35:40.166Z,12.50
2022-11-09T06:38:06.753Z,12.50
2022-11-09T06:40:33.633Z,12.50
2022-11-09T06:43:00.973Z,12.50
2022-11-09T06:45:29.188Z,12.50
2022-11-09T06:48:00.412Z,12.50
2022-11-09T06:50:28.247Z,12.50
2022-11-09T06:52:59.309Z,12.50
2022-11-09T06:55:28.104Z,12.40
2022-11-09T06:57:55.188Z,12.30
2022-11-09T07:00:22.718Z,12.30
2022-11-09T07:02:49.463Z,12.40
2022-11-09T07:05:15.932Z,12.30
2022-11-09T07:07:42.570Z,12.20
2022-11-09T07:10:09.797Z,12.10
2022-11-09T07:12:36.330Z,12.20
2022-11-09T07:15:04.215Z,12.10
2022-11-09T07:17:31.677Z,12.10
2022-11-09T07:19:58.318Z,12.10
2022-11-09T07:22:24.894Z,12.10
2022-11-09T07:24:51.294Z,12.10
2022-11-09T07:27:17.718Z,12.20
2022-11-09T07:29:44.192Z,12.10
2022-11-09T07:32:10.592Z,12.00
2022-11-09T07:34:37.038Z,12.10
2022-11-09T07:37:03.465Z,12.30
2022-11-09T07:39:30.177Z,12.30
2022-11-09T07:41:56.655Z,12.40
2022-11-09T07:44:23.092Z,12.40
2022-11-09T07:46:49.772Z,12.40
2022-11-09T07:49:17.188Z,12.40
2022-11-09T07:51:43.911Z,12.30
2022-11-09T07:54:10.647Z,12.40
2022-11-09T07:56:37.770Z,12.30
2022-11-09T07:59:04.866Z,12.10
2022-11-09T08:01:31.810Z,12.30
2022-11-09T08:03:58.258Z,12.30
2022-11-09T08:06:28.027Z,12.40
2022-11-09T08:08:55.536Z,12.50
2022-11-09T08:11:22.393Z,12.40
2022-11-09T08:13:48.807Z,12.40
2022-11-09T08:16:15.228Z,12.40
2022-11-09T08:18:41.733Z,12.40
2022-11-09T08:21:08.378Z,12.50
2022-11-09T08:23:34.973Z,12.40
2022-11-09T08:26:05.626Z,12.30
2022-11-09T08:28:32.947Z,12.30
2022-11-09T08:31:02.504Z,12.30
2022-11-09T08:33:31.159Z,12.30
2022-11-09T08:35:57.577Z,12.40
2022-11-09T08:38:24.210Z,12.50
2022-11-09T08:40:56.821Z,12.50
2022-11-09T08:43:23.270Z,12.60
2022-11-09T08:45:49.701Z,12.50
2022-11-09T08:48:16.129Z,12.60
2022-11-09T08:50:42.580Z,12.60
2022-11-09T08:53:09.327Z,12.60
2022-11-09T08:55:35.986Z,12.60
2022-11-09T08:58:03.854Z,12.60
2022-11-09T09:00:30.571Z,12.60
2022-11-09T09:02:57.165Z,12.70
2022-11-09T09:05:23.821Z,12.60
2022-11-09T09:07:50.427Z,12.70
2022-11-09T09:10:16.872Z,12.80
2022-11-09T09:12:43.498Z,12.80
2022-11-09T09:15:10.082Z,12.90
2022-11-09T09:17:36.527Z,12.90
2022-11-09T09:20:04.151Z,12.90
2022-11-09T09:22:30.827Z,13.10
2022-11-09T09:24:57.527Z,13.00
2022-11-09T09:27:23.991Z,13.20
2022-11-09T09:29:50.450Z,13.20
2022-11-09T09:32:16.845Z,13.30
2022-11-09T09:34:43.274Z,13.60
2022-11-09T09:37:11.128Z,13.80
2022-11-09T09:39:37.548Z,13.90
2022-11-09T09:42:37.568Z,13.90
2022-11-09T09:45:15.734Z,14.10
2022-11-09T09:47:45.738Z,14.30
2022-11-09T09:50:38.044Z,14.40
2022-11-09T09:53:24.332Z,14.30
2022-11-09T09:56:14.104Z,14.20
2022-11-09T09:58:47.611Z,14.10
2022-11-09T10:01:22.908Z,14.30
2022-11-09T10:03:49.522Z,14.00
2022-11-09T10:06:41.389Z,14.30
2022-11-09T10:09:21.708Z,14.20
2022-11-09T10:12:17.020Z,14.30
2022-11-09T10:15:10.195Z,14.60
2022-11-09T10:17:48.622Z,14.50
2022-11-09T10:20:52.981Z,14.80
2022-11-09T10:23:48.052Z,14.70
2022-11-09T10:26:19.289Z,14.60
2022-11-09T10:31:41.144Z,14.50
2022-11-09T10:34:28.592Z,14.80
2022-11-09T10:37:04.340Z,15.00
2022-11-09T10:39:42.204Z,15.30
2022-11-09T10:42:11.314Z,16.00
2022-11-09T10:44:37.823Z,18.10
2022-11-09T10:47:13.602Z,19.20
2022-11-09T10:49:40.832Z,19.50
2022-11-09T10:52:29.762Z,18.30
2022-11-09T10:55:17.097Z,20.20
2022-11-09T10:57:56.368Z,20.80
2022-11-09T11:00:22.826Z,21.20
2022-11-09T11:02:50.411Z,19.90
2022-11-09T11:05:16.746Z,18.40
2022-11-09T11:07:44.039Z,17.50
2022-11-09T11:10:16.406Z,18.20
2022-11-09T11:12:44.459Z,17.70
2022-11-09T11:15:35.239Z,17.20
2022-11-09T11:18:15.083Z,17.00
2022-11-09T11:20:41.508Z,17.40
2022-11-09T11:23:13.206Z,16.90
2022-11-09T11:26:00.846Z,17.60
2022-11-09T11:28:38.290Z,16.70
2022-11-09T11:31:04.688Z,16.60
2022-11-09T11:33:34.445Z,17.00
2022-11-09T11:36:18.139Z,16.30
2022-11-09T11:39:03.218Z,16.30
2022-11-09T11:41:48.374Z,16.40
2022-11-09T11:44:30.218Z,16.80
2022-11-09T11:47:12.686Z,17.10
2022-11-09T11:49:55.623Z,18.40
2022-11-09T11:52:48.505Z,19.30
2022-11-09T11:55:29.806Z,19.50
2022-11-09T11:58:23.677Z,20.40
2022-11-09T12:01:04.997Z,20.40
2022-11-09T12:03:39.976Z,20.60
2022-11-09T12:06:17.528Z,19.70
2022-11-09T12:08:54.363Z,19.70
2022-11-09T12:11:26.481Z,20.10
2022-11-09T12:13:52.828Z,20.00
2022-11-09T12:16:40.360Z,19.70
2022-11-09T12:19:35.953Z,19.90
2022-11-09T12:22:08.980Z,19.80
2022-11-09T12:24:57.344Z,19.00
2022-11-09T12:27:38.400Z,18.20
2022-11-09T12:30:16.193Z,18.20
2022-11-09T12:32:52.200Z,17.60
2022-11-09T12:35:35.915Z,17.60
2022-11-09T12:38:10.506Z,18.10
2022-11-09T12:40:48.168Z,17.90
2022-11-09T12:43:23.825Z,18.10
2022-11-09T12:45:53.015Z,18.90
2022-11-09T12:48:26.648Z,18.70
2022-11-09T12:50:53.750Z,18.30
2022-11-09T12:53:24.107Z,19.10
2022-11-09T12:56:02.095Z,18.50
2022-11-09T12:58:32.457Z,18.20
2022-11-09T13:01:29.708Z,17.80
2022-11-09T13:03:58.331Z,17.80
2022-11-09T13:06:29.849Z,17.90
2022-11-09T13:09:05.848Z,17.60
2022-11-09T13:11:41.144Z,17.50
2022-11-09T13:14:22.661Z,17.40
2022-11-09T13:16:57.069Z,17.60
2022-11-09T13:19:46.236Z,17.80
2022-11-09T13:22:15.882Z,17.50
2022-11-09T13:24:59.689Z,17.10
2022-11-09T13:27:39.032Z,17.20
2022-11-09T13:30:28.494Z,17.30
2022-11-09T13:33:18.703Z,17.20
2022-11-09T13:35:45.278Z,17.20
2022-11-09T13:38:16.211Z,17.10
2022-11-09T13:40:45.095Z,17.40
2022-11-09T13:43:11.529Z,17.40
2022-11-09T13:46:01.430Z,17.50
2022-11-09T13:48:44.879Z,17.50
2022-11-09T13:51:33.175Z,17.40
2022-11-09T13:54:47.113Z,17.10
2022-11-09T13:57:13.744Z,16.80
2022-11-09T13:59:47.094Z,16.90
2022-11-09T14:02:24.873Z,16.80
2022-11-09T14:04:51.326Z,16.70
2022-11-09T14:07:27.953Z,16.90
2022-11-09T14:10:10.317Z,16.80
2022-11-09T14:13:10.859Z,16.30
2022-11-09T14:15:48.340Z,16.40
2022-11-09T14:18:24.678Z,16.30
2022-11-09T14:21:18.359Z,16.10
2022-11-09T14:23:44.903Z,16.00
2022-11-09T14:26:22.916Z,16.00
2022-11-09T14:28:49.465Z,16.00
2022-11-09T14:31:27.117Z,15.70
2022-11-09T14:34:02.051Z,15.50
2022-11-09T14:36:31.537Z,15.60
2022-11-09T14:39:01.230Z,15.60
2022-11-09T14:41:28.262Z,15.50
2022-11-09T14:43:57.886Z,15.50
2022-11-09T14:46:29.835Z,15.30
2022-11-09T14:48:59.490Z,15.30
2022-11-09T14:51:33.331Z,15.30
2022-11-09T14:54:01.129Z,15.20
2022-11-09T14:56:29.643Z,15.20
2022-11-09T14:58:57.038Z,15.10
2022-11-09T15:01:26.447Z,15.10
2022-11-09T15:04:16.755Z,14.90
2022-11-09T15:06:51.613Z,14.80
2022-11-09T15:09:21.302Z,14.90
2022-11-09T15:11:48.813Z,14.90
2022-11-09T15:14:35.736Z,14.70
2022-11-09T15:17:16.437Z,14.60
2022-11-09T15:19:53.225Z,14.40
2022-11-09T15:22:52.474Z,14.30
2022-11-09T15:25:33.960Z,14.30
2022-11-09T15:28:09.423Z,14.20
2022-11-09T15:30:43.147Z,14.20
2022-11-09T15:33:17.993Z,14.30
2022-11-09T15:35:57.062Z,14.10
2022-11-09T15:38:43.430Z,14.10
2022-11-09T15:41:17.332Z,14.10
2022-11-09T15:43:44.292Z,14.00
2022-11-09T15:46:13.998Z,14.00
2022-11-09T15:48:45.563Z,14.00
2022-11-09T15:51:13.562Z,13.90
2022-11-09T15:53:40.111Z,13.90
2022-11-09T15:56:06.705Z,13.70
2022-11-09T15:58:33.139Z,13.70
2022-11-09T16:00:59.761Z,13.80
2022-11-09T16:03:26.408Z,13.80
2022-11-09T16:05:52.845Z,13.50
2022-11-09T16:08:19.931Z,13.50
2022-11-09T16:10:46.648Z,13.40
2022-11-09T16:13:13.050Z,13.50
2022-11-09T16:15:39.811Z,13.40
2022-11-09T16:18:06.391Z,13.40
2022-11-09T16:20:32.806Z,13.40
2022-11-09T16:22:59.327Z,13.40
2022-11-09T16:25:25.933Z,13.10
2022-11-09T16:27:53.417Z,13.00
2022-11-09T16:30:20.745Z,13.00
2022-11-09T16:32:47.284Z,12.90
2022-11-09T16:35:29.289Z,12.80
2022-11-09T16:37:58.174Z,12.80
2022-11-09T16:40:24.786Z,12.80
2022-11-09T16:42:51.875Z,12.80
2022-11-09T16:45:19.420Z,12.80
2022-11-09T16:47:49.153Z,12.80
2022-11-09T16:50:15.797Z,12.90
2022-11-09T16:52:42.937Z,12.90
2022-11-09T16:55:10.302Z,12.80
2022-11-09T16:57:37.245Z,12.80
2022-11-09T17:00:07.582Z,12.80
2022-11-09T17:02:34.914Z,12.80
2022-11-09T17:05:01.484Z,12.80
2022-11-09T17:07:28.668Z,12.70
2022-11-09T17:09:55.357Z,12.60
2022-11-09T17:12:21.817Z,12.60
2022-11-09T17:14:48.320Z,12.60
2022-11-09T17:17:21.207Z,12.40
2022-11-09T17:19:49.127Z,12.50
2022-11-09T17:22:15.834Z,12.60
2022-11-09T17:24:42.415Z,12.60
2022-11-09T17:27:10.165Z,12.60
2022-11-09T17:29:38.364Z,12.60
2022-11-09T17:32:07.089Z,12.60
2022-11-09T17:34:33.736Z,12.70
2022-11-09T17:37:05.156Z,12.70
2022-11-09T17:39:32.301Z,12.80
2022-11-09T17:41:58.748Z,12.70
2022-11-09T17:44:25.260Z,12.80
2022-11-09T17:46:51.949Z,12.70
2022-11-09T17:49:18.377Z,12.70
2022-11-09T17:51:45.861Z,12.60
2022-11-09T17:54:12.427Z,12.60
2022-11-09T17:56:39.548Z,12.60
2022-11-09T17:59:06.210Z,12.70
2022-11-09T18:01:40.834Z,12.80
2022-11-09T18:04:11.203Z,12.60
2022-11-09T18:06:38.545Z,12.70
2022-11-09T18:11:52.529Z,12.60
2022-11-09T18:14:19.350Z,12.70
2022-11-09T18:16:45.818Z,12.80
2022-11-09T18:19:12.602Z,12.90
2022-11-09T18:21:41.656Z,12.90
2022-11-09T18:24:08.579Z,12.90
2022-11-09T18:26:35.042Z,13.00
2022-11-09T18:29:01.494Z,13.10
2022-11-09T18:31:28.068Z,13.10
2022-11-09T18:33:54.535Z,13.10
2022-11-09T18:36:21.660Z,13.10
2022-11-09T18:38:51.080Z,13.00
2022-11-09T18:41:22.493Z,13.00
2022-11-09T18:43:50.901Z,13.00
2022-11-09T18:46:19.113Z,13.00
2022-11-09T18:48:45.866Z,13.00
2022-11-09T18:51:12.445Z,12.70
2022-11-09T18:53:44.201Z,12.90
2022-11-09T18:56:18.542Z,12.80
2022-11-09T18:58:46.072Z,12.90
2022-11-09T19:01:12.703Z,12.90
2022-11-09T19:03:39.190Z,12.80
2022-11-09T19:06:07.303Z,12.90
2022-11-09T19:08:52.319Z,12.80
2022-11-09T19:11:19.094Z,12.60
2022-11-09T19:13:45.579Z,12.60
2022-11-09T19:16:13.808Z,12.60
2022-11-09T19:18:40.681Z,12.50
2022-11-09T19:21:17.906Z,12.30
2022-11-09T19:23:44.314Z,12.10
2022-11-09T19:26:10.781Z,12.10
2022-11-09T19:28:37.225Z,12.20
2022-11-09T19:31:04.346Z,12.20
2022-11-09T19:33:31.089Z,12.10
2022-11-09T19:36:28.227Z,12.00
2022-11-09T19:38:45.125Z,12.00
2022-11-09T19:41:11.821Z,12.00
2022-11-09T19:43:38.520Z,12.00
2022-11-09T19:46:09.306Z,11.90
2022-11-09T19:48:37.115Z,11.70
2022-11-09T19:51:08.514Z,11.70
2022-11-09T19:53:41.038Z,11.60
2022-11-09T19:56:39.597Z,11.50
2022-11-09T19:59:08.942Z,11.60
2022-11-09T20:01:38.454Z,11.50
2022-11-09T20:04:10.098Z,11.40
2022-11-09T20:06:38.504Z,11.40
2022-11-09T20:09:05.794Z,11.40
2022-11-09T20:11:50.869Z,11.40
2022-11-09T20:14:18.293Z,11.30
2022-11-09T20:16:46.811Z,11.20
2022-11-09T20:19:14.218Z,11.20
2022-11-09T20:21:41.199Z,11.20
2022-11-09T20:24:08.560Z,10.90
2022-11-09T20:26:35.113Z,11.00
2022-11-09T20:29:03.710Z,11.00
2022-11-09T20:31:30.247Z,10.90
2022-11-09T20:33:56.686Z,10.80
2022-11-09T20:36:23.364Z,10.80
2022-11-09T20:38:49.959Z,10.80
2022-11-09T20:41:16.447Z,10.70
2022-11-09T20:43:43.073Z,10.70
2022-11-09T20:46:19.882Z,10.60
2022-11-09T20:48:54.034Z,10.70
2022-11-09T20:51:22.036Z,10.70
2022-11-09T20:53:50.604Z,10.60
2022-11-09T20:56:18.080Z,10.70
2022-11-09T20:58:44.625Z,10.70
2022-11-09T21:01:13.317Z,10.60
2022-11-09T21:03:39.790Z,10.70
2022-11-09T21:06:07.566Z,10.70
2022-11-09T21:08:34.519Z,10.70
2022-11-09T21:11:02.355Z,10.70
2022-11-09T21:13:28.899Z,10.70
2022-11-09T21:15:55.347Z,10.60
2022-11-09T21:18:22.199Z,10.60
2022-11-09T21:20:48.904Z,10.50
2022-11-09T21:23:15.297Z,10.50
2022-11-09T21:26:01.740Z,10.40
2022-11-09T21:28:47.642Z,10.50
2022-11-09T21:31:14.332Z,10.50
2022-11-09T21:33:40.829Z,10.30
2022-11-09T21:36:08.977Z,10.40
2022-11-09T21:38:36.871Z,10.50
2022-11-09T21:41:23.786Z,10.50
2022-11-09T21:43:54.446Z,10.50
2022-11-09T21:46:22.424Z,10.50
2022-11-09T21:48:48.922Z,10.60
2022-11-09T21:51:15.340Z,10.70
2022-11-09T21:53:41.812Z,10.90
2022-11-09T21:56:08.871Z,10.90
2022-11-09T21:58:35.290Z,11.00
2022-11-09T22:01:06.724Z,11.10
2022-11-09T22:03:33.663Z,11.10
2022-11-09T22:06:00.370Z,11.20
2022-11-09T22:08:27.201Z,11.20
2022-11-09T22:11:02.385Z,11.20
2022-11-09T22:13:47.158Z,11.20
2022-11-09T22:16:13.591Z,11.20
2022-11-09T22:18:58.387Z,11.20
2022-11-09T22:21:24.830Z,11.30
2022-11-09T22:23:51.398Z,11.40
2022-11-09T22:26:18.171Z,11.30
2022-11-09T22:28:44.720Z,11.30
2022-11-09T22:31:11.802Z,11.30
2022-11-09T22:33:38.224Z,11.30
2022-11-09T22:36:07.004Z,11.20
2022-11-09T22:38:34.511Z,11.30
2022-11-09T22:41:06.637Z,11.30
2022-11-09T22:43:37.937Z,11.20
2022-11-09T22:46:09.008Z,11.20
2022-11-09T22:48:36.257Z,11.20
2022-11-09T22:51:03.657Z,11.20
2022-11-09T22:53:30.539Z,11.20
2022-11-09T22:55:59.247Z,11.20
2022-11-09T22:58:26.411Z,11.30
2022-11-09T23:00:53.090Z,11.20
2022-11-09T23:03:20.275Z,11.20
2022-11-09T23:05:50.329Z,11.30
2022-11-09T23:08:16.763Z,11.30
2022-11-09T23:10:43.189Z,11.30
2022-11-09T23:13:09.732Z,11.30
2022-11-09T23:15:36.222Z,11.30
2022-11-09T23:18:21.145Z,11.50
2022-11-09T23:20:47.996Z,11.40
2022-11-09T23:23:14.415Z,11.40
2022-11-09T23:25:56.532Z,11.40
2022-11-09T23:28:24.410Z,11.40
2022-11-09T23:30:50.879Z,11.30
2022-11-09T23:33:17.297Z,11.30
2022-11-09T23:35:43.931Z,11.40
2022-11-09T23:38:11.594Z,11.30
2022-11-09T23:40:38.050Z,11.40
2022-11-09T23:43:11.042Z,11.20
2022-11-09T23:45:40.150Z,11.20
2022-11-09T23:48:07.767Z,11.20
2022-11-09T23:50:34.239Z,11.30
2022-11-09T23:53:00.705Z,11.20
2022-11-09T23:55:28.015Z,11.20
2022-11-09T23:57:54.759Z,11.20
